Time;durP1;ratioP1;P1;durP2;ratioP2;P2;SDS_P1;SDS_P2;PMS_P1;PMS_P2;Temp;Humidity;BMP_temperature;BMP_pressure;BME280_temperature;BME280_humidity;BME280_pressure;Samples;Min_cycle;Max_cycle;Signal;HPM_P1;HPM_P2
2021/10/07 00:01:30;;;;;;;0.93;0.73;;;22.90;77.00;;;;;;5115959;28;20057;-36
2021/10/07 00:03:56;;;;;;;0.80;0.80;;;22.90;77.10;;;;;;5125910;28;20020;-36
2021/10/07 00:06:22;;;;;;;0.60;0.60;;;22.90;77.30;;;;;;5125900;28;20024;-36
2021/10/07 00:08:50;;;;;;;2.00;0.80;;;22.90;77.30;;;;;;5125846;28;20027;-37
2021/10/07 00:11:16;;;;;;;0.60;0.60;;;22.90;77.30;;;;;;5125825;28;20039;-37
2021/10/07 00:13:43;;;;;;;1.20;0.80;;;22.90;77.30;;;;;;5107572;28;20849;-36
2021/10/07 00:16:09;;;;;;;1.50;0.60;;;22.90;77.30;;;;;;5125778;28;20051;-36
2021/10/07 00:18:40;;;;;;;0.98;0.68;;;22.90;78.00;;;;;;5125622;28;20030;-36
2021/10/07 00:21:07;;;;;;;0.60;0.60;;;22.90;77.30;;;;;;5118068;28;20044;-36
2021/10/07 00:23:40;;;;;;;0.80;0.80;;;22.90;77.30;;;;;;5084787;28;20031;-36
2021/10/07 00:26:06;;;;;;;0.90;0.70;;;22.90;77.20;;;;;;5084313;28;20044;-36
2021/10/07 00:28:33;;;;;;;0.70;0.70;;;22.90;77.20;;;;;;5085060;28;20025;-37
2021/10/07 00:31:02;;;;;;;0.90;0.73;;;22.90;77.20;;;;;;5101290;28;20519;-36
2021/10/07 00:33:38;;;;;;;0.68;0.68;;;22.90;77.10;;;;;;5125410;28;20036;-37
2021/10/07 00:36:15;;;;;;;0.70;0.60;;;22.90;77.20;;;;;;5125131;28;20041;-36
2021/10/07 00:41:25;;;;;;;1.35;0.85;;;22.90;77.20;;;;;;5125401;28;20053;-36
2021/10/07 00:43:51;;;;;;;0.80;0.73;;;22.90;77.20;;;;;;5125371;28;20020;-36
2021/10/07 00:46:18;;;;;;;0.63;0.63;;;22.90;77.20;;;;;;5117162;28;20100;-37
2021/10/07 00:48:44;;;;;;;0.80;0.70;;;22.90;77.30;;;;;;5104361;28;20028;-36
2021/10/07 00:51:10;;;;;;;1.80;0.90;;;22.90;77.30;;;;;;5107903;28;20042;-37
2021/10/07 00:53:36;;;;;;;0.55;0.55;;;22.90;77.40;;;;;;5107701;28;20028;-37
2021/10/07 00:56:02;;;;;;;1.08;0.77;;;22.90;77.30;;;;;;5105959;28;20051;-37
2021/10/07 00:58:28;;;;;;;0.90;0.80;;;22.90;77.30;;;;;;5121279;28;20030;-36
2021/10/07 01:00:55;;;;;;;0.60;0.60;;;22.90;77.30;;;;;;5082182;28;20471;-36
2021/10/07 01:03:21;;;;;;;0.60;0.52;;;22.90;77.20;;;;;;5104499;28;20031;-36
2021/10/07 01:05:47;;;;;;;0.88;0.80;;;22.90;77.20;;;;;;5119703;28;20016;-37
2021/10/07 01:08:13;;;;;;;0.90;0.90;;;22.90;77.20;;;;;;5106312;28;20071;-36
2021/10/07 01:10:40;;;;;;;1.45;0.73;;;22.90;77.30;;;;;;5124636;28;20720;-36
2021/10/07 01:13:06;;;;;;;2.20;0.80;;;22.90;77.20;;;;;;5124540;28;20126;-36
2021/10/07 01:15:32;;;;;;;0.50;0.50;;;22.90;77.20;;;;;;5124412;28;20118;-37
2021/10/07 01:17:58;;;;;;;0.77;0.70;;;22.90;77.30;;;;;;5124526;28;20028;-37
2021/10/07 01:20:25;;;;;;;0.70;0.70;;;22.90;77.30;;;;;;5123967;28;20047;-36
2021/10/07 01:22:51;;;;;;;0.85;0.80;;;22.90;77.30;;;;;;5124179;28;20146;-36
2021/10/07 01:25:17;;;;;;;0.70;0.70;;;22.90;77.30;;;;;;5123891;28;20024;-36
2021/10/07 01:27:43;;;;;;;0.70;0.70;;;22.90;77.30;;;;;;5124275;28;20032;-36
2021/10/07 01:30:11;;;;;;;0.80;0.80;;;22.90;77.30;;;;;;5088862;28;20032;-37
2021/10/07 01:32:38;;;;;;;0.70;0.63;;;22.90;77.30;;;;;;5124191;28;20032;-36
2021/10/07 01:35:05;;;;;;;;;;;22.90;77.30;;;;;;5124447;28;20059;-37
2021/10/07 01:37:31;;;;;;;0.85;0.73;;;22.90;77.20;;;;;;5123099;28;19926;-36
2021/10/07 01:39:57;;;;;;;0.95;0.75;;;22.90;77.30;;;;;;5124035;28;20020;-37
2021/10/07 01:42:23;;;;;;;0.90;0.85;;;22.90;77.40;;;;;;5124183;28;20020;-37
2021/10/07 01:44:49;;;;;;;0.80;0.63;;;22.90;77.30;;;;;;5123987;28;20023;-36
2021/10/07 01:47:15;;;;;;;0.60;0.60;;;22.90;77.40;;;;;;5123752;28;20031;-37
2021/10/07 01:49:41;;;;;;;0.73;0.70;;;22.90;77.40;;;;;;5123500;28;20097;-36
2021/10/07 01:52:07;;;;;;;0.90;0.70;;;22.90;77.40;;;;;;5105277;28;20047;-37
2021/10/07 01:54:34;;;;;;;1.00;0.70;;;22.90;77.40;;;;;;5123446;28;20048;-36
2021/10/07 01:57:00;;;;;;;0.80;0.57;;;22.90;77.30;;;;;;5123455;28;20079;-36
2021/10/07 01:59:26;;;;;;;0.77;0.77;;;22.90;77.40;;;;;;5123599;28;20027;-37
2021/10/07 02:01:52;;;;;;;2.22;0.80;;;22.90;77.40;;;;;;5123556;28;20024;-37
2021/10/07 02:04:18;;;;;;;1.17;0.80;;;22.90;77.30;;;;;;5123219;28;20028;-36
2021/10/07 02:06:44;;;;;;;1.15;0.90;;;22.90;77.30;;;;;;5123076;28;20028;-37
2021/10/07 02:09:10;;;;;;;0.57;0.55;;;22.90;77.20;;;;;;5123470;28;20130;-37
2021/10/07 02:11:37;;;;;;;0.80;0.80;;;22.90;77.30;;;;;;5104988;28;20034;-36
2021/10/07 02:14:03;;;;;;;1.10;0.95;;;22.90;77.40;;;;;;5123352;28;20122;-36
2021/10/07 02:16:33;;;;;;;0.77;0.73;;;22.90;77.30;;;;;;5123236;28;20078;-36
2021/10/07 02:18:59;;;;;;;2.25;1.13;;;22.90;77.30;;;;;;5123127;28;20032;-36
2021/10/07 02:21:25;;;;;;;1.05;0.60;;;22.90;77.40;;;;;;5123154;28;20024;-37
2021/10/07 02:23:51;;;;;;;1.42;0.70;;;22.90;77.40;;;;;;5123056;28;20563;-36
2021/10/07 02:26:17;;;;;;;1.93;0.90;;;22.90;77.50;;;;;;5123016;28;20063;-36
2021/10/07 02:28:44;;;;;;;0.90;0.65;;;22.90;77.50;;;;;;5123059;28;20031;-37
2021/10/07 02:31:10;;;;;;;1.02;0.73;;;23.00;77.60;;;;;;5123189;28;20031;-37
2021/10/07 02:33:36;;;;;;;0.73;0.52;;;22.90;77.60;;;;;;5123055;28;20023;-37
2021/10/07 02:36:03;;;;;;;1.10;0.60;;;22.90;77.50;;;;;;5123196;28;20027;-37
2021/10/07 02:38:29;;;;;;;1.10;0.70;;;22.90;77.50;;;;;;5122901;28;20342;-36
2021/10/07 02:40:55;;;;;;;0.90;0.70;;;22.90;77.50;;;;;;5122981;28;20027;-37
2021/10/07 02:43:21;;;;;;;1.52;0.60;;;22.90;77.40;;;;;;5122956;28;20693;-36
2021/10/07 02:45:47;;;;;;;0.55;0.55;;;22.90;77.40;;;;;;5123190;28;20024;-37
2021/10/07 02:48:13;;;;;;;0.90;0.70;;;22.90;77.40;;;;;;5123536;28;20032;-36
2021/10/07 02:50:40;;;;;;;0.70;0.63;;;22.90;77.50;;;;;;5127087;28;20062;-36
2021/10/07 02:53:06;;;;;;;1.17;0.90;;;22.90;77.60;;;;;;5126859;28;20026;-37
2021/10/07 02:55:32;;;;;;;2.67;0.68;;;22.90;77.50;;;;;;5126925;28;20047;-36
2021/10/07 02:57:58;;;;;;;0.70;0.60;;;22.90;77.50;;;;;;5127028;28;20077;-37
2021/10/07 03:00:24;;;;;;;1.42;0.80;;;22.90;77.60;;;;;;5123590;28;20020;-37
2021/10/07 03:02:50;;;;;;;0.68;0.60;;;22.90;77.50;;;;;;5106361;28;20100;-37
2021/10/07 03:05:16;;;;;;;2.25;0.75;;;22.90;77.60;;;;;;5106455;28;20036;-36
2021/10/07 03:07:42;;;;;;;1.77;0.88;;;22.90;77.70;;;;;;5105987;28;20031;-37
2021/10/07 03:10:09;;;;;;;0.73;0.50;;;22.90;77.60;;;;;;5075458;28;20029;-37
2021/10/07 03:12:35;;;;;;;1.27;0.80;;;22.90;77.70;;;;;;5088841;28;20501;-37
2021/10/07 03:15:01;;;;;;;0.60;0.60;;;22.90;77.70;;;;;;5106228;28;20093;-36
2021/10/07 03:17:27;;;;;;;1.55;0.77;;;22.90;77.80;;;;;;5105993;28;20035;-36
2021/10/07 03:19:53;;;;;;;0.75;0.75;;;22.90;77.70;;;;;;5106261;28;20028;-36
2021/10/07 03:22:21;;;;;;;1.05;0.70;;;22.90;77.70;;;;;;5119217;28;20047;-37
2021/10/07 03:24:47;;;;;;;1.08;0.50;;;22.90;77.60;;;;;;5126612;28;20042;-36
2021/10/07 03:27:13;;;;;;;1.33;0.60;;;22.90;77.50;;;;;;5126404;28;20034;-37
2021/10/07 03:29:39;;;;;;;1.25;0.70;;;22.90;77.60;;;;;;5126393;28;20032;-36
2021/10/07 03:32:06;;;;;;;0.60;0.50;;;22.90;77.60;;;;;;5108494;28;20023;-37
2021/10/07 03:34:32;;;;;;;0.93;0.60;;;22.90;77.70;;;;;;5105605;28;20039;-37
2021/10/07 03:36:58;;;;;;;0.80;0.80;;;22.90;77.60;;;;;;5105957;28;20724;-37
2021/10/07 03:39:24;;;;;;;0.65;0.47;;;22.90;77.60;;;;;;5105585;28;20031;-37
2021/10/07 03:41:50;;;;;;;0.60;0.50;;;22.90;77.70;;;;;;5105738;28;20040;-37
2021/10/07 03:44:16;;;;;;;0.60;0.60;;;22.90;77.60;;;;;;5105742;28;20024;-37
2021/10/07 03:46:42;;;;;;;0.98;0.68;;;22.90;77.70;;;;;;5105556;28;20020;-37
2021/10/07 03:49:08;;;;;;;0.80;0.68;;;22.90;77.80;;;;;;5105421;28;20090;-37
2021/10/07 03:51:34;;;;;;;0.70;0.70;;;22.90;77.80;;;;;;5105634;28;20028;-37
2021/10/07 03:54:00;;;;;;;1.42;0.80;;;22.90;77.80;;;;;;5108375;28;20035;-37
2021/10/07 03:56:26;;;;;;;0.80;0.65;;;22.90;77.80;;;;;;5125957;28;20024;-37
2021/10/07 03:58:52;;;;;;;0.63;0.60;;;22.90;77.90;;;;;;5125260;28;20052;-37
2021/10/07 04:01:18;;;;;;;0.90;0.68;;;22.90;77.90;;;;;;5125976;28;20020;-37
2021/10/07 04:03:45;;;;;;;1.10;0.70;;;22.90;77.80;;;;;;5125718;28;20027;-37
2021/10/07 04:06:11;;;;;;;0.60;0.52;;;22.90;77.70;;;;;;5125864;28;20028;-37
2021/10/07 04:08:37;;;;;;;0.70;0.70;;;22.90;77.80;;;;;;5125411;28;20860;-37
2021/10/07 04:11:03;;;;;;;2.03;0.70;;;22.90;77.70;;;;;;5125465;28;20374;-37
2021/10/07 04:13:29;;;;;;;0.82;0.80;;;22.90;77.70;;;;;;5125777;28;20028;-37
2021/10/07 04:15:55;;;;;;;0.75;0.65;;;22.90;77.70;;;;;;5125545;28;20031;-37
2021/10/07 04:18:21;;;;;;;0.50;0.50;;;22.90;77.80;;;;;;5125384;28;20023;-37
2021/10/07 04:20:48;;;;;;;0.73;0.70;;;22.90;77.70;;;;;;5106861;28;20027;-37
2021/10/07 04:23:15;;;;;;;0.73;0.70;;;22.80;77.70;;;;;;5125514;28;20034;-37
2021/10/07 04:25:42;;;;;;;0.80;0.80;;;22.90;77.80;;;;;;5125357;28;20039;-36
2021/10/07 04:28:08;;;;;;;0.87;0.80;;;22.90;77.80;;;;;;5125070;28;20080;-37
2021/10/07 04:30:35;;;;;;;0.93;0.60;;;22.80;77.90;;;;;;5125052;28;20907;-37
2021/10/07 04:33:11;;;;;;;0.98;0.70;;;22.90;77.90;;;;;;5125210;28;20292;-37
2021/10/07 04:35:40;;;;;;;0.95;0.70;;;22.80;78.00;;;;;;5125272;28;20050;-37
2021/10/07 04:38:06;;;;;;;1.70;0.85;;;22.90;78.00;;;;;;5124191;28;20024;-37
2021/10/07 04:40:33;;;;;;;0.98;0.80;;;22.80;77.80;;;;;;5125128;28;20020;-37
2021/10/07 04:42:59;;;;;;;0.70;0.68;;;22.80;77.80;;;;;;5125015;28;20496;-37
2021/10/07 04:45:25;;;;;;;1.35;0.73;;;22.80;77.80;;;;;;5124863;28;20051;-38
2021/10/07 04:47:51;;;;;;;1.33;0.67;;;22.80;77.80;;;;;;5124917;28;20662;-37
2021/10/07 04:50:17;;;;;;;0.80;0.70;;;22.80;77.80;;;;;;5124603;28;20319;-37
2021/10/07 04:52:43;;;;;;;1.00;0.70;;;22.80;77.90;;;;;;5124650;28;20024;-37
2021/10/07 04:55:09;;;;;;;0.88;0.70;;;22.80;77.80;;;;;;5124710;28;20757;-37
2021/10/07 04:57:36;;;;;;;2.08;0.77;;;22.80;77.80;;;;;;5124816;28;20023;-37
2021/10/07 05:00:04;;;;;;;1.00;0.60;;;22.80;77.80;;;;;;5124387;28;20024;-37
2021/10/07 05:02:30;;;;;;;0.80;0.63;;;22.80;77.70;;;;;;5124516;28;20036;-37
2021/10/07 05:04:56;;;;;;;0.70;0.60;;;22.80;77.70;;;;;;5120466;28;20121;-36
2021/10/07 05:07:22;;;;;;;0.65;0.65;;;22.80;77.80;;;;;;5124353;28;20684;-37
2021/10/07 05:09:49;;;;;;;1.00;0.80;;;22.80;77.90;;;;;;5117443;28;20075;-37
2021/10/07 05:12:15;;;;;;;1.00;0.65;;;22.80;77.80;;;;;;5084821;28;20025;-37
2021/10/07 05:14:41;;;;;;;1.20;0.60;;;22.80;77.90;;;;;;5103803;28;20115;-37
2021/10/07 05:17:07;;;;;;;0.70;0.70;;;22.80;77.90;;;;;;5103800;28;20024;-37
2021/10/07 05:19:33;;;;;;;1.15;0.70;;;22.80;77.90;;;;;;5103448;28;20101;-36
2021/10/07 05:21:59;;;;;;;0.85;0.70;;;22.80;77.80;;;;;;5114234;28;20047;-37
2021/10/07 05:24:25;;;;;;;1.55;0.80;;;22.80;77.90;;;;;;5123982;28;20028;-37
2021/10/07 05:26:51;;;;;;;0.95;0.70;;;22.80;77.90;;;;;;5124095;28;20632;-37
2021/10/07 05:29:18;;;;;;;1.05;0.70;;;22.80;77.90;;;;;;5123318;28;20043;-37
2021/10/07 05:31:44;;;;;;;1.33;0.60;;;22.80;77.90;;;;;;5124012;28;20031;-37
2021/10/07 05:34:10;;;;;;;0.55;0.55;;;22.80;77.80;;;;;;5123955;28;20031;-37
2021/10/07 05:36:36;;;;;;;0.63;0.63;;;22.80;77.90;;;;;;5124015;28;20027;-36
2021/10/07 05:39:02;;;;;;;0.95;0.60;;;22.80;77.90;;;;;;5123487;28;20027;-37
2021/10/07 05:41:28;;;;;;;0.80;0.63;;;22.80;77.90;;;;;;5124065;28;20027;-37
2021/10/07 05:43:55;;;;;;;0.80;0.80;;;22.80;77.90;;;;;;5123833;28;20047;-37
2021/10/07 05:46:21;;;;;;;2.30;0.80;;;22.80;77.90;;;;;;5123684;28;20743;-37
2021/10/07 05:48:47;;;;;;;1.50;0.60;;;22.80;77.90;;;;;;5123580;28;20054;-37
2021/10/07 05:51:13;;;;;;;1.75;0.60;;;22.80;77.90;;;;;;5123481;28;20548;-37
2021/10/07 05:53:39;;;;;;;0.75;0.60;;;22.80;78.00;;;;;;5123633;28;20024;-40
2021/10/07 05:56:06;;;;;;;0.90;0.60;;;22.80;77.90;;;;;;5123654;28;20077;-37
2021/10/07 05:58:33;;;;;;;0.68;0.60;;;22.80;78.00;;;;;;5123338;28;20028;-37
2021/10/07 06:00:59;;;;;;;0.80;0.80;;;22.80;77.90;;;;;;5116353;28;20432;-37
2021/10/07 06:03:25;;;;;;;1.00;0.85;;;22.80;77.90;;;;;;5103161;28;20139;-37
2021/10/07 06:05:51;;;;;;;0.70;0.70;;;22.80;77.90;;;;;;5103172;28;20020;-37
2021/10/07 06:08:17;;;;;;;0.63;0.57;;;22.80;77.90;;;;;;5114132;28;20038;-37
2021/10/07 06:10:44;;;;;;;0.90;0.73;;;22.80;77.90;;;;;;5123196;28;20067;-37
2021/10/07 06:13:10;;;;;;;0.70;0.70;;;22.80;77.90;;;;;;5123192;28;20027;-37
2021/10/07 06:15:36;;;;;;;0.80;0.80;;;22.80;77.90;;;;;;5123248;28;20041;-37
2021/10/07 06:18:02;;;;;;;0.80;0.70;;;22.80;77.90;;;;;;5123289;28;20027;-37
2021/10/07 06:22:54;;;;;;;1.25;0.85;;;22.80;77.90;;;;;;5123198;28;20097;-36
2021/10/07 06:25:21;;;;;;;0.68;0.68;;;22.80;78.00;;;;;;5123265;28;20024;-37
2021/10/07 06:27:49;;;;;;;0.93;0.70;;;22.80;78.00;;;;;;5123186;28;20561;-36
2021/10/07 06:30:15;;;;;;;1.00;0.70;;;22.80;78.00;;;;;;5122858;28;20043;-37
2021/10/07 06:32:43;;;;;;;1.05;0.70;;;22.80;78.00;;;;;;5123287;28;20468;-37
2021/10/07 06:35:09;;;;;;;1.02;0.70;;;22.80;78.00;;;;;;5123047;28;20034;-37
2021/10/07 06:37:35;;;;;;;1.58;0.60;;;22.80;78.00;;;;;;5123008;28;20024;-37
2021/10/07 06:40:02;;;;;;;1.13;0.75;;;22.80;78.00;;;;;;5122860;28;20039;-37
2021/10/07 06:42:28;;;;;;;0.80;0.70;;;22.80;78.00;;;;;;5123249;28;20046;-37
2021/10/07 06:44:54;;;;;;;1.00;0.90;;;22.70;78.00;;;;;;5122761;28;20571;-37
2021/10/07 06:47:21;;;;;;;0.60;0.55;;;22.70;77.90;;;;;;5123136;28;20032;-37
2021/10/07 06:49:47;;;;;;;1.00;0.80;;;22.80;78.00;;;;;;5122620;28;20028;-36
2021/10/07 06:52:13;;;;;;;1.25;0.73;;;22.70;77.90;;;;;;5123056;28;20099;-37
2021/10/07 06:54:39;;;;;;;1.23;0.82;;;22.80;77.90;;;;;;5122868;28;20066;-36
2021/10/07 06:57:05;;;;;;;1.00;0.90;;;22.80;77.90;;;;;;5122613;28;20030;-36
2021/10/07 06:59:31;;;;;;;0.82;0.82;;;22.80;78.10;;;;;;5122727;28;20019;-36
2021/10/07 07:01:57;;;;;;;2.35;0.90;;;22.70;77.90;;;;;;5122800;28;20043;-37
2021/10/07 07:04:23;;;;;;;1.27;0.70;;;22.70;78.00;;;;;;5122751;28;20015;-37
2021/10/07 07:06:50;;;;;;;0.85;0.70;;;22.70;77.90;;;;;;5122842;28;20066;-37
2021/10/07 07:09:16;;;;;;;0.77;0.70;;;22.70;77.90;;;;;;5103226;28;20036;-36
2021/10/07 07:11:43;;;;;;;0.73;0.63;;;22.70;77.90;;;;;;5102077;28;20028;-37
2021/10/07 07:14:09;;;;;;;1.77;0.77;;;22.70;78.00;;;;;;5117120;28;20023;-36
2021/10/07 07:16:35;;;;;;;1.25;0.90;;;22.70;78.70;;;;;;5120949;28;20039;-37
2021/10/07 07:19:01;;;;;;;1.10;0.70;;;22.70;78.00;;;;;;5122811;28;20038;-37
2021/10/07 07:21:30;;;;;;;0.70;0.70;;;22.70;78.00;;;;;;5104339;28;20024;-37
2021/10/07 07:23:58;;;;;;;1.00;0.77;;;22.70;78.00;;;;;;5122763;28;20028;-37
2021/10/07 07:26:25;;;;;;;0.93;0.65;;;22.70;78.00;;;;;;5122475;28;20028;-37
2021/10/07 07:28:51;;;;;;;1.75;0.80;;;22.70;78.00;;;;;;5122565;28;20119;-36
2021/10/07 07:31:21;;;;;;;0.60;0.60;;;22.70;78.00;;;;;;5122598;28;20035;-37
2021/10/07 07:33:47;;;;;;;1.23;0.68;;;22.70;78.00;;;;;;5122675;28;20035;-36
2021/10/07 07:36:14;;;;;;;0.93;0.70;;;22.70;78.00;;;;;;5126282;28;20054;-36
2021/10/07 07:38:41;;;;;;;0.70;0.70;;;22.70;77.90;;;;;;5126548;28;20439;-36
2021/10/07 07:41:09;;;;;;;1.20;0.68;;;22.70;78.00;;;;;;5125947;28;20032;-37
2021/10/07 07:43:34;;;;;;;;;;;22.70;78.00;;;;;;5126676;28;20055;-37
2021/10/07 07:46:01;;;;;;;0.98;0.77;;;22.70;78.00;;;;;;5126479;28;19911;-37
2021/10/07 07:48:27;;;;;;;0.85;0.85;;;22.70;78.00;;;;;;5126138;28;20030;-37
2021/10/07 07:50:53;;;;;;;1.10;0.85;;;22.70;78.00;;;;;;5125768;28;20031;-37
2021/10/07 07:53:19;;;;;;;1.08;0.80;;;22.70;77.90;;;;;;5126212;28;20019;-37
2021/10/07 07:55:45;;;;;;;1.13;0.60;;;22.70;77.90;;;;;;5125961;28;20051;-37
2021/10/07 07:58:12;;;;;;;0.83;0.70;;;22.70;78.00;;;;;;5126362;28;20040;-37
2021/10/07 08:00:38;;;;;;;;;;;22.70;77.90;;;;;;5126207;28;20027;-37
2021/10/07 08:03:05;;;;;;;1.20;0.70;;;22.70;78.00;;;;;;5125936;28;19954;-37
2021/10/07 08:05:31;;;;;;;0.88;0.75;;;22.70;78.00;;;;;;5126099;28;20039;-37
2021/10/07 08:07:58;;;;;;;1.00;0.75;;;22.70;78.00;;;;;;5125973;28;20035;-37
2021/10/07 08:10:24;;;;;;;0.88;0.75;;;22.70;78.00;;;;;;5125674;28;20039;-37
2021/10/07 08:12:50;;;;;;;0.65;0.60;;;22.70;78.00;;;;;;5125497;28;20030;-37
2021/10/07 08:15:17;;;;;;;1.03;0.77;;;22.70;78.00;;;;;;5125737;28;20035;-37
2021/10/07 08:17:43;;;;;;;2.30;0.70;;;22.70;78.00;;;;;;5125707;28;20038;-37
2021/10/07 08:20:10;;;;;;;0.90;0.73;;;22.70;78.00;;;;;;5125564;28;20063;-37
2021/10/07 08:22:37;;;;;;;1.35;0.68;;;22.70;78.00;;;;;;5107369;28;20019;-37
2021/10/07 08:25:03;;;;;;;1.00;0.73;;;22.70;78.00;;;;;;5125539;28;20031;-37
2021/10/07 08:27:29;;;;;;;0.73;0.65;;;22.70;78.00;;;;;;5125650;28;20027;-37
2021/10/07 08:29:56;;;;;;;1.50;0.80;;;22.70;78.00;;;;;;5125322;28;20047;-37
2021/10/07 08:32:23;;;;;;;0.73;0.73;;;22.70;78.00;;;;;;5125313;28;20023;-37
2021/10/07 08:34:49;;;;;;;1.23;0.88;;;22.70;78.00;;;;;;5125493;28;20302;-37
2021/10/07 08:37:15;;;;;;;1.33;0.88;;;22.70;78.00;;;;;;5125247;28;20394;-37
2021/10/07 08:39:41;;;;;;;1.05;0.70;;;22.70;78.00;;;;;;5125073;28;20036;-37
2021/10/07 08:42:07;;;;;;;1.00;0.80;;;22.70;78.00;;;;;;5125192;28;20815;-37
2021/10/07 08:44:33;;;;;;;1.98;0.90;;;22.70;77.90;;;;;;5125165;28;20039;-37
2021/10/07 08:47:00;;;;;;;1.15;0.90;;;22.70;78.00;;;;;;5106619;28;20016;-37
2021/10/07 08:49:32;;;;;;;0.90;0.77;;;22.70;78.00;;;;;;5124912;28;20461;-37
2021/10/07 08:51:58;;;;;;;1.00;0.90;;;22.70;78.00;;;;;;5107735;28;20035;-37
2021/10/07 08:54:24;;;;;;;1.23;0.80;;;22.70;78.00;;;;;;5124393;28;20043;-37
2021/10/07 08:56:51;;;;;;;1.42;0.82;;;22.70;78.00;;;;;;5124767;28;20704;-37
2021/10/07 08:59:19;;;;;;;1.30;0.80;;;22.70;78.00;;;;;;5124710;28;20024;-37
2021/10/07 09:01:46;;;;;;;1.20;0.73;;;22.70;78.00;;;;;;5125059;28;20106;-37
2021/10/07 09:04:21;;;;;;;1.17;0.90;;;22.70;78.00;;;;;;5124823;28;20074;-37
2021/10/07 09:06:48;;;;;;;1.10;0.98;;;22.70;78.00;;;;;;5113273;28;20043;-37
2021/10/07 09:09:14;;;;;;;0.98;0.82;;;22.60;77.90;;;;;;5123604;28;20387;-37
2021/10/07 09:11:40;;;;;;;1.15;0.82;;;22.60;78.00;;;;;;5124764;28;20848;-37
2021/10/07 09:14:08;;;;;;;0.95;0.90;;;22.70;78.00;;;;;;5124615;28;20028;-37
2021/10/07 09:16:42;;;;;;;1.10;0.90;;;22.60;78.00;;;;;;5124447;28;20091;-37
2021/10/07 09:19:14;;;;;;;1.70;1.02;;;22.60;78.00;;;;;;5112018;28;20078;-37
2021/10/07 09:21:41;;;;;;;0.90;0.90;;;22.60;77.90;;;;;;5104061;28;20031;-37
2021/10/07 09:24:37;;;;;;;0.80;0.80;;;22.60;78.00;;;;;;5104122;28;20039;-37
2021/10/07 09:27:12;;;;;;;1.38;0.68;;;22.60;78.00;;;;;;5103671;28;20488;-37
2021/10/07 09:30:09;;;;;;;1.45;0.90;;;22.60;78.00;;;;;;5119767;28;20062;-37
2021/10/07 09:32:43;;;;;;;2.03;0.90;;;22.60;78.00;;;;;;5123776;28;20035;-37
2021/10/07 09:35:10;;;;;;;1.02;0.93;;;22.60;78.00;;;;;;5124057;28;20095;-37
2021/10/07 09:37:38;;;;;;;1.00;0.90;;;22.60;78.00;;;;;;5124014;28;20024;-37
2021/10/07 09:40:08;;;;;;;;;;;22.60;78.00;;;;;;5124725;28;20043;-37
2021/10/07 09:42:43;;;;;;;1.50;1.05;;;22.60;77.90;;;;;;5124027;28;19907;-37
2021/10/07 09:45:14;;;;;;;1.02;0.90;;;22.60;78.00;;;;;;5124145;28;20023;-37
2021/10/07 09:47:42;;;;;;;0.95;0.85;;;22.60;78.00;;;;;;5124085;28;20032;-37
2021/10/07 09:50:12;;;;;;;1.20;0.77;;;22.60;78.00;;;;;;5123845;28;20031;-37
2021/10/07 09:52:39;;;;;;;1.38;0.90;;;22.60;78.00;;;;;;5123851;28;20023;-37
2021/10/07 09:55:09;;;;;;;1.00;0.90;;;22.60;78.00;;;;;;5123689;28;20150;-37
2021/10/07 09:57:56;;;;;;;1.60;1.13;;;22.60;78.00;;;;;;5123209;28;20051;-37
2021/10/07 10:00:26;;;;;;;0.90;0.88;;;22.60;78.00;;;;;;5102253;28;20024;-37
2021/10/07 10:02:57;;;;;;;0.98;0.80;;;22.60;78.00;;;;;;5103241;28;20124;-37
2021/10/07 10:05:23;;;;;;;1.08;0.73;;;22.60;78.00;;;;;;5103414;28;20016;-37
2021/10/07 10:07:49;;;;;;;1.05;0.95;;;22.60;78.00;;;;;;5092189;28;20689;-37
2021/10/07 10:10:16;;;;;;;1.05;0.90;;;22.60;78.00;;;;;;5105399;28;20057;-37
2021/10/07 10:12:42;;;;;;;1.00;0.90;;;22.60;78.10;;;;;;5123715;28;20023;-37
2021/10/07 10:15:09;;;;;;;0.80;0.80;;;22.60;78.00;;;;;;5123514;28;20027;-37
2021/10/07 10:17:36;;;;;;;0.95;0.90;;;22.60;78.10;;;;;;5105168;28;20083;-37
2021/10/07 10:20:07;;;;;;;1.00;0.90;;;22.60;78.10;;;;;;5123480;28;20095;-37
2021/10/07 10:22:34;;;;;;;1.35;0.80;;;22.60;78.10;;;;;;5088820;28;20101;-37
2021/10/07 10:25:00;;;;;;;0.90;0.70;;;22.60;78.10;;;;;;5105149;28;20046;-37
2021/10/07 10:27:27;;;;;;;0.82;0.82;;;22.60;78.10;;;;;;5105338;28;20125;-37
2021/10/07 10:30:25;;;;;;;1.10;1.00;;;22.60;78.10;;;;;;5104670;28;20050;-37
2021/10/07 10:32:52;;;;;;;0.87;0.70;;;22.60;78.10;;;;;;5115907;28;20118;-37
2021/10/07 10:35:32;;;;;;;1.02;0.95;;;22.60;78.10;;;;;;5105091;28;21032;-37
2021/10/07 10:37:58;;;;;;;2.63;0.80;;;22.60;78.00;;;;;;5123264;28;20781;-37
2021/10/07 10:40:24;;;;;;;1.00;0.88;;;22.60;78.10;;;;;;5123301;28;20023;-37
2021/10/07 10:43:17;;;;;;;1.17;0.88;;;22.60;78.10;;;;;;5123361;28;20028;-37
2021/10/07 10:45:49;;;;;;;1.30;1.00;;;22.60;78.00;;;;;;5112314;28;20040;-37
2021/10/07 10:48:42;;;;;;;1.10;1.00;;;22.60;78.10;;;;;;5123085;28;20024;-37
2021/10/07 10:51:15;;;;;;;1.00;0.80;;;22.60;78.10;;;;;;5113972;28;20111;-37
2021/10/07 10:54:11;;;;;;;1.38;0.88;;;22.60;78.10;;;;;;5122530;28;20094;-37
2021/10/07 10:56:57;;;;;;;1.13;0.80;;;22.60;78.10;;;;;;5122537;28;20102;-37
2021/10/07 10:59:24;;;;;;;1.30;0.80;;;22.60;78.10;;;;;;5116277;28;20114;-37
2021/10/07 11:02:08;;;;;;;;;;;22.60;78.10;;;;;;5123443;28;20049;-37
2021/10/07 11:04:43;;;;;;;1.00;0.85;;;22.50;78.00;;;;;;5120569;28;20553;-37
2021/10/07 11:07:35;;;;;;;1.00;0.90;;;22.60;78.10;;;;;;5104287;28;20083;-37
2021/10/07 11:10:13;;;;;;;1.45;0.80;;;22.60;78.10;;;;;;5124776;28;20046;-37
2021/10/07 11:12:45;;;;;;;1.10;1.00;;;22.60;78.10;;;;;;5127358;28;20047;-37
2021/10/07 11:15:11;;;;;;;1.98;0.80;;;22.60;78.00;;;;;;5127305;28;20047;-37
2021/10/07 11:17:41;;;;;;;1.20;1.10;;;22.60;78.00;;;;;;5108603;28;20019;-37
2021/10/07 11:20:09;;;;;;;2.63;0.80;;;22.60;78.00;;;;;;5126641;28;20032;-37
2021/10/07 11:22:35;;;;;;;1.25;1.00;;;22.60;78.10;;;;;;5126910;28;20058;-37
2021/10/07 11:25:01;;;;;;;0.95;0.88;;;22.60;78.00;;;;;;5126949;28;20027;-38
2021/10/07 11:27:40;;;;;;;0.90;0.75;;;22.60;78.10;;;;;;5108692;28;20487;-37
2021/10/07 11:30:09;;;;;;;0.70;0.70;;;22.60;78.00;;;;;;5108032;28;20123;-37
2021/10/07 11:32:35;;;;;;;0.98;0.73;;;22.60;78.10;;;;;;5126821;28;20031;-37
2021/10/07 11:35:07;;;;;;;1.15;1.00;;;22.60;78.10;;;;;;5126588;28;20030;-37
2021/10/07 11:38:13;;;;;;;1.20;1.02;;;22.60;78.10;;;;;;5126645;28;20031;-37
2021/10/07 11:40:47;;;;;;;0.77;0.77;;;22.60;78.10;;;;;;5114588;28;20035;-37
2021/10/07 11:43:19;;;;;;;1.10;0.80;;;22.60;78.10;;;;;;5126697;28;20038;-38
2021/10/07 11:45:47;;;;;;;0.98;0.88;;;22.60;78.10;;;;;;5126696;28;20353;-36
2021/10/07 11:48:13;;;;;;;1.35;0.90;;;22.50;78.00;;;;;;5126670;28;20035;-37
2021/10/07 11:50:44;;;;;;;2.30;1.10;;;22.60;78.10;;;;;;5126004;28;20035;-37
2021/10/07 11:53:12;;;;;;;1.42;0.90;;;22.60;78.00;;;;;;5126489;28;20039;-37
2021/10/07 11:55:45;;;;;;;1.33;1.17;;;22.50;78.00;;;;;;5126117;28;20065;-37
2021/10/07 11:58:11;;;;;;;0.88;0.88;;;22.60;78.00;;;;;;5126357;28;20095;-37
2021/10/07 12:00:51;;;;;;;0.87;0.87;;;22.60;78.00;;;;;;5126093;28;20141;-37
2021/10/07 12:03:36;;;;;;;1.90;0.90;;;22.50;78.00;;;;;;5126347;28;20030;-37
2021/10/07 12:06:10;;;;;;;1.05;0.95;;;22.60;78.00;;;;;;5125873;28;20020;-37
2021/10/07 12:08:44;;;;;;;1.73;0.80;;;22.50;78.10;;;;;;5126088;28;20044;-37
2021/10/07 12:11:16;;;;;;;2.15;0.93;;;22.50;78.00;;;;;;5125954;28;20027;-37
2021/10/07 12:13:45;;;;;;;0.85;0.85;;;22.50;78.10;;;;;;5125889;28;20083;-37
2021/10/07 12:16:14;;;;;;;0.98;0.90;;;22.50;78.10;;;;;;5126090;28;20028;-37
2021/10/07 12:18:49;;;;;;;1.10;1.00;;;22.50;78.00;;;;;;5125180;28;20490;-37
2021/10/07 12:21:20;;;;;;;1.35;0.88;;;22.50;78.10;;;;;;5086274;28;20020;-37
2021/10/07 12:24:07;;;;;;;1.08;0.90;;;22.50;78.00;;;;;;5113536;28;20039;-37
2021/10/07 12:26:46;;;;;;;1.02;0.93;;;22.50;78.00;;;;;;5114818;28;20028;-37
2021/10/07 12:29:20;;;;;;;0.90;0.70;;;22.50;78.00;;;;;;5125580;28;20043;-37
2021/10/07 12:31:51;;;;;;;1.23;0.95;;;22.50;78.00;;;;;;5125721;28;20063;-38
2021/10/07 12:34:18;;;;;;;1.13;0.80;;;22.50;78.00;;;;;;5125721;28;20023;-37
2021/10/07 12:36:46;;;;;;;1.02;0.93;;;22.50;78.00;;;;;;5125361;28;20516;-37
2021/10/07 12:39:33;;;;;;;1.50;0.90;;;22.50;78.00;;;;;;5125493;28;20074;-37
2021/10/07 12:41:59;;;;;;;1.45;0.68;;;22.50;77.90;;;;;;5124943;28;20085;-37
2021/10/07 12:44:31;;;;;;;0.77;0.77;;;22.50;78.00;;;;;;5125428;28;20049;-37
2021/10/07 12:46:58;;;;;;;1.33;0.90;;;22.50;78.00;;;;;;5125368;28;20066;-37
2021/10/07 12:49:51;;;;;;;0.85;0.82;;;22.50;78.00;;;;;;5125301;28;20051;-37
2021/10/07 12:52:38;;;;;;;0.80;0.80;;;22.50;78.00;;;;;;5121672;28;20047;-37
2021/10/07 12:55:15;;;;;;;1.17;1.02;;;22.50;78.00;;;;;;5124942;28;20071;-37
2021/10/07 12:57:44;;;;;;;0.77;0.70;;;22.50;78.00;;;;;;5106737;28;20027;-37
2021/10/07 13:00:28;;;;;;;1.75;0.80;;;22.50;78.00;;;;;;5124999;28;20028;-37